Terminal Aerodrome Forecast
Issued by NWS Cleveland, OH

Home | Current Version | Previous Version | Text Only | Print | Product List | Glossary Off
Versions: 1 2 3 4 5 6 7 8 9 10 11 12 13 14 15 16 17 18 19 20 21 22 23

000
FTUS41 KCLE 262000 AAA
TAFMFD
TAF AMD
KMFD 262012Z 2620/2718 20008KT P6SM VCTS OVC040CB
      TEMPO 2620/2622 2SM -TSRA OVC020CB
     FM270600 23003KT 3SM BR BKN030
     FM271100 22003KT 2SM BR OVC007
     FM271400 22008KT P6SM VCTS OVC030CB=

USA.gov is the U.S. government's official web portal to all federal, state and local government web resources and services.